sensor_id;sensor_type;location;lat;lon;timestamp;P1;durP1;ratioP1;P2;durP2;ratioP2
9898;SDS011;4988;49.238;6.698;2022-12-26T00:01:39;5.73;;;3.00;;
9898;SDS011;4988;49.238;6.698;2022-12-26T00:04:07;5.07;;;3.30;;
9898;SDS011;4988;49.238;6.698;2022-12-26T00:06:32;5.83;;;3.80;;
9898;SDS011;4988;49.238;6.698;2022-12-26T00:08:58;5.83;;;3.30;;
9898;SDS011;4988;49.238;6.698;2022-12-26T00:11:25;3.90;;;3.17;;
9898;SDS011;4988;49.238;6.698;2022-12-26T00:13:52;5.53;;;3.03;;
9898;SDS011;4988;49.238;6.698;2022-12-26T00:16:26;6.77;;;3.20;;
9898;SDS011;4988;49.238;6.698;2022-12-26T00:18:52;5.63;;;3.20;;
9898;SDS011;4988;49.238;6.698;2022-12-26T00:21:18;6.10;;;3.30;;
9898;SDS011;4988;49.238;6.698;2022-12-26T00:23:44;4.87;;;3.20;;
9898;SDS011;4988;49.238;6.698;2022-12-26T00:26:14;5.93;;;3.23;;
9898;SDS011;4988;49.238;6.698;2022-12-26T00:28:43;6.60;;;3.30;;
9898;SDS011;4988;49.238;6.698;2022-12-26T00:31:10;8.60;;;3.63;;
9898;SDS011;4988;49.238;6.698;2022-12-26T00:33:38;7.57;;;3.27;;
9898;SDS011;4988;49.238;6.698;2022-12-26T00:36:04;6.83;;;2.87;;
9898;SDS011;4988;49.238;6.698;2022-12-26T00:38:32;6.53;;;3.17;;
9898;SDS011;4988;49.238;6.698;2022-12-26T00:40:59;5.67;;;3.07;;
9898;SDS011;4988;49.238;6.698;2022-12-26T00:43:25;6.43;;;3.50;;
9898;SDS011;4988;49.238;6.698;2022-12-26T00:45:50;8.60;;;3.50;;
9898;SDS011;4988;49.238;6.698;2022-12-26T00:48:15;6.50;;;3.30;;
9898;SDS011;4988;49.238;6.698;2022-12-26T00:50:40;6.90;;;3.00;;
9898;SDS011;4988;49.238;6.698;2022-12-26T00:53:06;9.20;;;4.20;;
9898;SDS011;4988;49.238;6.698;2022-12-26T00:55:31;7.43;;;3.70;;
9898;SDS011;4988;49.238;6.698;2022-12-26T00:57:57;5.77;;;3.27;;
9898;SDS011;4988;49.238;6.698;2022-12-26T01:00:22;7.03;;;3.60;;
9898;SDS011;4988;49.238;6.698;2022-12-26T01:02:48;5.20;;;2.87;;
9898;SDS011;4988;49.238;6.698;2022-12-26T01:05:13;4.23;;;2.90;;
9898;SDS011;4988;49.238;6.698;2022-12-26T01:07:39;7.57;;;3.80;;
9898;SDS011;4988;49.238;6.698;2022-12-26T01:10:05;8.20;;;3.90;;
9898;SDS011;4988;49.238;6.698;2022-12-26T01:12:33;6.83;;;3.37;;
9898;SDS011;4988;49.238;6.698;2022-12-26T01:14:59;8.33;;;3.00;;
9898;SDS011;4988;49.238;6.698;2022-12-26T01:17:26;5.57;;;3.00;;
9898;SDS011;4988;49.238;6.698;2022-12-26T01:19:52;5.27;;;3.00;;
9898;SDS011;4988;49.238;6.698;2022-12-26T01:22:18;8.50;;;3.53;;
9898;SDS011;4988;49.238;6.698;2022-12-26T01:24:44;5.07;;;2.87;;
9898;SDS011;4988;49.238;6.698;2022-12-26T01:27:09;7.67;;;3.47;;
9898;SDS011;4988;49.238;6.698;2022-12-26T01:29:35;6.30;;;3.17;;
9898;SDS011;4988;49.238;6.698;2022-12-26T01:32:00;6.83;;;3.13;;
9898;SDS011;4988;49.238;6.698;2022-12-26T01:34:26;7.83;;;3.60;;
9898;SDS011;4988;49.238;6.698;2022-12-26T01:36:51;7.53;;;3.93;;
9898;SDS011;4988;49.238;6.698;2022-12-26T01:39:18;7.43;;;3.57;;
9898;SDS011;4988;49.238;6.698;2022-12-26T01:41:43;7.43;;;3.40;;
9898;SDS011;4988;49.238;6.698;2022-12-26T01:47:11;11.30;;;3.37;;
9898;SDS011;4988;49.238;6.698;2022-12-26T01:49:42;6.30;;;3.13;;
9898;SDS011;4988;49.238;6.698;2022-12-26T01:52:12;6.80;;;3.10;;
9898;SDS011;4988;49.238;6.698;2022-12-26T01:54:42;6.20;;;3.43;;
9898;SDS011;4988;49.238;6.698;2022-12-26T01:57:15;6.13;;;3.93;;
9898;SDS011;4988;49.238;6.698;2022-12-26T01:59:45;8.20;;;3.60;;
9898;SDS011;4988;49.238;6.698;2022-12-26T02:02:14;5.37;;;3.27;;
9898;SDS011;4988;49.238;6.698;2022-12-26T02:04:43;8.10;;;3.60;;
9898;SDS011;4988;49.238;6.698;2022-12-26T02:07:30;7.77;;;3.50;;
9898;SDS011;4988;49.238;6.698;2022-12-26T02:09:57;5.73;;;3.40;;
9898;SDS011;4988;49.238;6.698;2022-12-26T02:12:30;7.90;;;3.83;;
9898;SDS011;4988;49.238;6.698;2022-12-26T02:14:58;6.07;;;3.63;;
9898;SDS011;4988;49.238;6.698;2022-12-26T02:17:25;8.53;;;3.60;;
9898;SDS011;4988;49.238;6.698;2022-12-26T02:19:56;9.00;;;3.97;;
9898;SDS011;4988;49.238;6.698;2022-12-26T02:30:56;5.23;;;3.60;;
9898;SDS011;4988;49.238;6.698;2022-12-26T02:33:49;8.73;;;3.40;;
9898;SDS011;4988;49.238;6.698;2022-12-26T02:36:38;7.87;;;3.77;;
9898;SDS011;4988;49.238;6.698;2022-12-26T02:39:33;8.40;;;3.50;;
9898;SDS011;4988;49.238;6.698;2022-12-26T02:45:12;6.63;;;3.33;;
9898;SDS011;4988;49.238;6.698;2022-12-26T02:48:54;10.33;;;3.60;;
9898;SDS011;4988;49.238;6.698;2022-12-26T02:51:10;9.47;;;3.63;;
9898;SDS011;4988;49.238;6.698;2022-12-26T02:54:37;4.90;;;3.43;;
9898;SDS011;4988;49.238;6.698;2022-12-26T02:57:28;9.47;;;4.00;;
9898;SDS011;4988;49.238;6.698;2022-12-26T03:00:18;8.23;;;3.40;;
9898;SDS011;4988;49.238;6.698;2022-12-26T03:03:08;10.00;;;3.43;;
9898;SDS011;4988;49.238;6.698;2022-12-26T03:09:03;6.00;;;3.70;;
9898;SDS011;4988;49.238;6.698;2022-12-26T03:11:51;6.57;;;3.60;;
9898;SDS011;4988;49.238;6.698;2022-12-26T03:17:23;8.43;;;3.80;;
9898;SDS011;4988;49.238;6.698;2022-12-26T03:19:54;8.27;;;3.40;;
9898;SDS011;4988;49.238;6.698;2022-12-26T03:24:56;7.57;;;3.70;;
9898;SDS011;4988;49.238;6.698;2022-12-26T03:27:42;6.53;;;3.60;;
9898;SDS011;4988;49.238;6.698;2022-12-26T03:30:08;9.33;;;4.03;;
9898;SDS011;4988;49.238;6.698;2022-12-26T03:32:53;8.03;;;4.00;;
9898;SDS011;4988;49.238;6.698;2022-12-26T03:35:20;6.40;;;4.07;;
9898;SDS011;4988;49.238;6.698;2022-12-26T03:46:30;5.87;;;3.77;;
9898;SDS011;4988;49.238;6.698;2022-12-26T03:49:26;9.00;;;3.80;;
9898;SDS011;4988;49.238;6.698;2022-12-26T03:52:25;7.17;;;4.30;;
9898;SDS011;4988;49.238;6.698;2022-12-26T04:01:50;8.07;;;4.40;;
9898;SDS011;4988;49.238;6.698;2022-12-26T04:04:36;8.70;;;3.80;;
9898;SDS011;4988;49.238;6.698;2022-12-26T04:07:30;7.07;;;4.57;;
9898;SDS011;4988;49.238;6.698;2022-12-26T04:10:20;9.27;;;5.10;;
9898;SDS011;4988;49.238;6.698;2022-12-26T04:13:16;9.40;;;4.17;;
9898;SDS011;4988;49.238;6.698;2022-12-26T04:16:15;10.63;;;4.27;;
9898;SDS011;4988;49.238;6.698;2022-12-26T04:24:43;9.27;;;4.00;;
9898;SDS011;4988;49.238;6.698;2022-12-26T04:27:32;7.07;;;3.83;;
9898;SDS011;4988;49.238;6.698;2022-12-26T04:30:16;8.17;;;3.63;;
9898;SDS011;4988;49.238;6.698;2022-12-26T04:33:04;5.90;;;3.60;;
9898;SDS011;4988;49.238;6.698;2022-12-26T04:35:54;10.27;;;4.10;;
9898;SDS011;4988;49.238;6.698;2022-12-26T04:38:48;7.13;;;3.87;;
9898;SDS011;4988;49.238;6.698;2022-12-26T04:41:36;8.37;;;3.73;;
9898;SDS011;4988;49.238;6.698;2022-12-26T04:44:23;6.40;;;3.70;;
9898;SDS011;4988;49.238;6.698;2022-12-26T04:46:51;9.43;;;3.60;;
9898;SDS011;4988;49.238;6.698;2022-12-26T04:49:18;6.83;;;3.87;;
9898;SDS011;4988;49.238;6.698;2022-12-26T04:52:09;8.07;;;3.90;;
9898;SDS011;4988;49.238;6.698;2022-12-26T04:54:36;6.30;;;3.70;;
9898;SDS011;4988;49.238;6.698;2022-12-26T04:57:02;5.50;;;3.47;;
9898;SDS011;4988;49.238;6.698;2022-12-26T04:59:28;9.77;;;3.53;;
9898;SDS011;4988;49.238;6.698;2022-12-26T05:01:54;8.23;;;3.37;;
9898;SDS011;4988;49.238;6.698;2022-12-26T05:04:42;5.30;;;3.60;;
9898;SDS011;4988;49.238;6.698;2022-12-26T05:07:30;6.67;;;4.00;;
9898;SDS011;4988;49.238;6.698;2022-12-26T05:10:20;6.33;;;3.67;;
9898;SDS011;4988;49.238;6.698;2022-12-26T05:12:47;7.33;;;3.80;;
9898;SDS011;4988;49.238;6.698;2022-12-26T05:15:13;6.50;;;3.97;;
9898;SDS011;4988;49.238;6.698;2022-12-26T05:17:39;10.80;;;4.77;;
9898;SDS011;4988;49.238;6.698;2022-12-26T05:20:23;7.83;;;4.50;;
9898;SDS011;4988;49.238;6.698;2022-12-26T05:23:11;11.03;;;5.20;;
9898;SDS011;4988;49.238;6.698;2022-12-26T05:25:59;9.97;;;4.80;;
9898;SDS011;4988;49.238;6.698;2022-12-26T05:28:42;10.23;;;4.13;;
9898;SDS011;4988;49.238;6.698;2022-12-26T05:31:09;10.77;;;4.37;;
9898;SDS011;4988;49.238;6.698;2022-12-26T05:33:37;8.90;;;4.73;;
9898;SDS011;4988;49.238;6.698;2022-12-26T05:36:22;8.13;;;5.03;;
9898;SDS011;4988;49.238;6.698;2022-12-26T05:38:51;11.10;;;5.73;;
9898;SDS011;4988;49.238;6.698;2022-12-26T05:41:17;13.20;;;5.90;;
9898;SDS011;4988;49.238;6.698;2022-12-26T05:43:42;10.47;;;5.60;;
9898;SDS011;4988;49.238;6.698;2022-12-26T05:46:07;11.20;;;4.77;;
9898;SDS011;4988;49.238;6.698;2022-12-26T05:48:33;16.97;;;5.57;;
9898;SDS011;4988;49.238;6.698;2022-12-26T05:50:59;9.43;;;4.97;;
9898;SDS011;4988;49.238;6.698;2022-12-26T05:53:26;12.63;;;4.87;;
9898;SDS011;4988;49.238;6.698;2022-12-26T05:55:52;9.73;;;5.10;;
9898;SDS011;4988;49.238;6.698;2022-12-26T05:58:17;11.60;;;5.47;;
9898;SDS011;4988;49.238;6.698;2022-12-26T06:00:43;11.23;;;5.70;;
9898;SDS011;4988;49.238;6.698;2022-12-26T06:03:08;10.67;;;5.07;;
9898;SDS011;4988;49.238;6.698;2022-12-26T06:05:33;9.87;;;5.40;;
9898;SDS011;4988;49.238;6.698;2022-12-26T06:07:59;11.50;;;5.00;;
9898;SDS011;4988;49.238;6.698;2022-12-26T06:10:24;11.37;;;5.17;;
9898;SDS011;4988;49.238;6.698;2022-12-26T06:12:51;9.17;;;4.83;;
9898;SDS011;4988;49.238;6.698;2022-12-26T06:15:17;11.87;;;5.03;;
9898;SDS011;4988;49.238;6.698;2022-12-26T06:17:43;11.60;;;5.07;;
9898;SDS011;4988;49.238;6.698;2022-12-26T06:20:08;9.63;;;5.10;;
9898;SDS011;4988;49.238;6.698;2022-12-26T06:22:34;8.83;;;4.70;;
9898;SDS011;4988;49.238;6.698;2022-12-26T06:25:00;7.20;;;4.47;;
9898;SDS011;4988;49.238;6.698;2022-12-26T06:27:25;11.63;;;4.93;;
9898;SDS011;4988;49.238;6.698;2022-12-26T06:29:50;11.67;;;4.40;;
9898;SDS011;4988;49.238;6.698;2022-12-26T06:32:16;9.40;;;4.13;;
9898;SDS011;4988;49.238;6.698;2022-12-26T06:34:41;9.53;;;4.37;;
9898;SDS011;4988;49.238;6.698;2022-12-26T06:37:06;9.80;;;4.37;;
9898;SDS011;4988;49.238;6.698;2022-12-26T06:39:32;9.20;;;4.80;;
9898;SDS011;4988;49.238;6.698;2022-12-26T06:41:57;9.13;;;4.63;;
9898;SDS011;4988;49.238;6.698;2022-12-26T06:44:22;9.83;;;4.60;;
9898;SDS011;4988;49.238;6.698;2022-12-26T06:46:48;6.20;;;3.93;;
9898;SDS011;4988;49.238;6.698;2022-12-26T06:49:13;7.10;;;4.40;;
9898;SDS011;4988;49.238;6.698;2022-12-26T06:51:38;8.70;;;4.27;;
9898;SDS011;4988;49.238;6.698;2022-12-26T06:54:04;7.93;;;4.40;;
9898;SDS011;4988;49.238;6.698;2022-12-26T06:56:30;8.80;;;4.03;;
9898;SDS011;4988;49.238;6.698;2022-12-26T06:58:57;9.43;;;3.80;;
9898;SDS011;4988;49.238;6.698;2022-12-26T07:01:24;9.40;;;4.00;;
9898;SDS011;4988;49.238;6.698;2022-12-26T07:03:51;9.60;;;4.10;;
9898;SDS011;4988;49.238;6.698;2022-12-26T07:06:21;8.23;;;4.20;;
9898;SDS011;4988;49.238;6.698;2022-12-26T07:08:47;8.40;;;4.33;;
9898;SDS011;4988;49.238;6.698;2022-12-26T07:11:14;7.10;;;3.93;;
9898;SDS011;4988;49.238;6.698;2022-12-26T07:13:41;9.57;;;4.40;;
9898;SDS011;4988;49.238;6.698;2022-12-26T07:16:07;7.70;;;4.13;;
9898;SDS011;4988;49.238;6.698;2022-12-26T07:18:33;6.63;;;4.30;;
9898;SDS011;4988;49.238;6.698;2022-12-26T07:20:58;8.00;;;4.00;;
9898;SDS011;4988;49.238;6.698;2022-12-26T07:23:24;6.30;;;3.53;;
9898;SDS011;4988;49.238;6.698;2022-12-26T07:25:49;8.50;;;3.87;;
9898;SDS011;4988;49.238;6.698;2022-12-26T07:28:14;8.27;;;4.00;;
9898;SDS011;4988;49.238;6.698;2022-12-26T07:30:49;9.80;;;3.87;;
9898;SDS011;4988;49.238;6.698;2022-12-26T07:33:15;6.83;;;3.50;;
9898;SDS011;4988;49.238;6.698;2022-12-26T07:35:40;6.97;;;3.83;;
9898;SDS011;4988;49.238;6.698;2022-12-26T07:38:06;5.33;;;3.80;;
9898;SDS011;4988;49.238;6.698;2022-12-26T07:40:31;7.07;;;3.70;;
9898;SDS011;4988;49.238;6.698;2022-12-26T07:42:57;6.13;;;3.67;;
9898;SDS011;4988;49.238;6.698;2022-12-26T07:45:22;6.87;;;3.67;;
9898;SDS011;4988;49.238;6.698;2022-12-26T07:47:51;9.13;;;3.67;;
9898;SDS011;4988;49.238;6.698;2022-12-26T07:50:17;6.60;;;3.30;;
9898;SDS011;4988;49.238;6.698;2022-12-26T07:52:43;5.97;;;3.60;;
9898;SDS011;4988;49.238;6.698;2022-12-26T07:55:08;4.00;;;3.30;;
9898;SDS011;4988;49.238;6.698;2022-12-26T07:57:34;5.00;;;2.73;;
9898;SDS011;4988;49.238;6.698;2022-12-26T07:59:59;7.77;;;3.33;;
9898;SDS011;4988;49.238;6.698;2022-12-26T08:02:24;6.10;;;3.07;;
9898;SDS011;4988;49.238;6.698;2022-12-26T08:04:49;5.80;;;3.40;;
9898;SDS011;4988;49.238;6.698;2022-12-26T08:07:15;7.07;;;3.13;;
9898;SDS011;4988;49.238;6.698;2022-12-26T08:09:40;5.03;;;3.07;;
9898;SDS011;4988;49.238;6.698;2022-12-26T08:12:08;3.83;;;3.00;;
9898;SDS011;4988;49.238;6.698;2022-12-26T08:14:35;5.03;;;3.17;;
9898;SDS011;4988;49.238;6.698;2022-12-26T08:17:01;6.00;;;2.67;;
9898;SDS011;4988;49.238;6.698;2022-12-26T08:19:26;5.07;;;3.07;;
9898;SDS011;4988;49.238;6.698;2022-12-26T08:21:52;6.83;;;3.17;;
9898;SDS011;4988;49.238;6.698;2022-12-26T08:24:17;6.60;;;3.20;;
9898;SDS011;4988;49.238;6.698;2022-12-26T08:26:42;4.73;;;2.83;;
9898;SDS011;4988;49.238;6.698;2022-12-26T08:29:08;5.37;;;3.23;;
9898;SDS011;4988;49.238;6.698;2022-12-26T08:31:34;5.90;;;3.30;;
9898;SDS011;4988;49.238;6.698;2022-12-26T08:33:59;6.23;;;3.40;;
9898;SDS011;4988;49.238;6.698;2022-12-26T08:36:25;5.47;;;3.20;;
9898;SDS011;4988;49.238;6.698;2022-12-26T08:38:50;6.40;;;3.43;;
9898;SDS011;4988;49.238;6.698;2022-12-26T08:41:15;6.33;;;3.33;;
9898;SDS011;4988;49.238;6.698;2022-12-26T08:43:50;6.13;;;3.20;;
9898;SDS011;4988;49.238;6.698;2022-12-26T08:46:18;8.33;;;3.43;;
9898;SDS011;4988;49.238;6.698;2022-12-26T08:48:45;5.03;;;3.37;;
9898;SDS011;4988;49.238;6.698;2022-12-26T08:51:44;6.13;;;3.80;;
9898;SDS011;4988;49.238;6.698;2022-12-26T08:54:03;5.70;;;3.73;;
9898;SDS011;4988;49.238;6.698;2022-12-26T08:56:29;6.77;;;3.30;;
9898;SDS011;4988;49.238;6.698;2022-12-26T08:58:55;9.10;;;3.60;;
9898;SDS011;4988;49.238;6.698;2022-12-26T09:01:21;7.83;;;3.60;;
9898;SDS011;4988;49.238;6.698;2022-12-26T09:03:55;6.07;;;3.33;;
9898;SDS011;4988;49.238;6.698;2022-12-26T09:06:26;7.73;;;3.40;;
9898;SDS011;4988;49.238;6.698;2022-12-26T09:08:52;4.30;;;3.60;;
9898;SDS011;4988;49.238;6.698;2022-12-26T09:11:19;4.80;;;3.50;;
9898;SDS011;4988;49.238;6.698;2022-12-26T09:13:47;8.17;;;3.63;;
9898;SDS011;4988;49.238;6.698;2022-12-26T09:16:14;5.93;;;3.13;;
9898;SDS011;4988;49.238;6.698;2022-12-26T09:18:42;7.13;;;3.17;;
9898;SDS011;4988;49.238;6.698;2022-12-26T09:21:08;6.17;;;3.23;;
9898;SDS011;4988;49.238;6.698;2022-12-26T09:23:35;6.07;;;3.23;;
9898;SDS011;4988;49.238;6.698;2022-12-26T09:26:05;4.93;;;3.50;;
9898;SDS011;4988;49.238;6.698;2022-12-26T09:28:30;6.40;;;2.90;;
9898;SDS011;4988;49.238;6.698;2022-12-26T09:30:59;9.30;;;3.00;;
9898;SDS011;4988;49.238;6.698;2022-12-26T09:33:25;4.03;;;3.30;;
9898;SDS011;4988;49.238;6.698;2022-12-26T09:35:51;5.17;;;2.80;;
9898;SDS011;4988;49.238;6.698;2022-12-26T09:38:16;6.27;;;3.23;;
9898;SDS011;4988;49.238;6.698;2022-12-26T09:49:23;7.80;;;3.00;;
9898;SDS011;4988;49.238;6.698;2022-12-26T09:51:54;5.73;;;3.67;;
9898;SDS011;4988;49.238;6.698;2022-12-26T09:56:59;4.43;;;3.17;;
9898;SDS011;4988;49.238;6.698;2022-12-26T09:59:26;6.37;;;3.40;;
9898;SDS011;4988;49.238;6.698;2022-12-26T10:01:57;6.50;;;2.90;;
9898;SDS011;4988;49.238;6.698;2022-12-26T10:04:24;4.67;;;3.20;;
9898;SDS011;4988;49.238;6.698;2022-12-26T10:06:53;6.10;;;2.80;;
9898;SDS011;4988;49.238;6.698;2022-12-26T10:12:26;8.37;;;4.47;;
9898;SDS011;4988;49.238;6.698;2022-12-26T10:15:43;7.13;;;3.83;;
9898;SDS011;4988;49.238;6.698;2022-12-26T10:20:53;7.03;;;3.40;;
9898;SDS011;4988;49.238;6.698;2022-12-26T10:23:31;7.70;;;3.97;;
9898;SDS011;4988;49.238;6.698;2022-12-26T10:28:35;4.67;;;3.40;;
9898;SDS011;4988;49.238;6.698;2022-12-26T10:31:01;8.37;;;3.70;;
9898;SDS011;4988;49.238;6.698;2022-12-26T10:33:52;6.37;;;2.97;;
9898;SDS011;4988;49.238;6.698;2022-12-26T10:36:39;5.37;;;3.10;;
9898;SDS011;4988;49.238;6.698;2022-12-26T10:44:50;4.47;;;3.03;;
9898;SDS011;4988;49.238;6.698;2022-12-26T10:49:50;4.53;;;3.10;;
9898;SDS011;4988;49.238;6.698;2022-12-26T10:52:17;4.80;;;2.97;;
9898;SDS011;4988;49.238;6.698;2022-12-26T10:54:46;6.53;;;3.43;;
9898;SDS011;4988;49.238;6.698;2022-12-26T10:57:17;5.27;;;3.20;;
9898;SDS011;4988;49.238;6.698;2022-12-26T10:59:45;5.87;;;3.00;;
9898;SDS011;4988;49.238;6.698;2022-12-26T11:02:25;5.77;;;3.27;;
9898;SDS011;4988;49.238;6.698;2022-12-26T11:04:57;5.63;;;3.20;;
9898;SDS011;4988;49.238;6.698;2022-12-26T11:07:25;7.87;;;3.00;;
9898;SDS011;4988;49.238;6.698;2022-12-26T11:09:53;4.93;;;3.10;;
9898;SDS011;4988;49.238;6.698;2022-12-26T11:12:20;5.53;;;3.10;;
9898;SDS011;4988;49.238;6.698;2022-12-26T11:14:50;4.40;;;2.97;;
9898;SDS011;4988;49.238;6.698;2022-12-26T11:17:27;4.47;;;2.90;;
9898;SDS011;4988;49.238;6.698;2022-12-26T11:20:16;8.27;;;3.20;;
9898;SDS011;4988;49.238;6.698;2022-12-26T11:22:47;4.83;;;2.73;;
9898;SDS011;4988;49.238;6.698;2022-12-26T11:25:18;4.17;;;2.83;;
9898;SDS011;4988;49.238;6.698;2022-12-26T11:27:46;4.77;;;3.00;;
9898;SDS011;4988;49.238;6.698;2022-12-26T11:30:21;6.87;;;3.17;;
9898;SDS011;4988;49.238;6.698;2022-12-26T11:33:03;6.47;;;2.90;;
9898;SDS011;4988;49.238;6.698;2022-12-26T11:35:29;4.77;;;3.00;;
9898;SDS011;4988;49.238;6.698;2022-12-26T11:38:01;5.30;;;2.77;;
9898;SDS011;4988;49.238;6.698;2022-12-26T11:43:02;4.00;;;2.53;;
9898;SDS011;4988;49.238;6.698;2022-12-26T11:45:30;5.27;;;2.77;;
9898;SDS011;4988;49.238;6.698;2022-12-26T11:48:01;5.53;;;2.97;;
9898;SDS011;4988;49.238;6.698;2022-12-26T11:50:28;3.80;;;2.70;;
9898;SDS011;4988;49.238;6.698;2022-12-26T11:57:59;8.50;;;3.20;;
9898;SDS011;4988;49.238;6.698;2022-12-26T12:00:31;4.47;;;2.93;;
9898;SDS011;4988;49.238;6.698;2022-12-26T12:02:58;3.23;;;2.57;;
9898;SDS011;4988;49.238;6.698;2022-12-26T12:27:51;5.37;;;2.70;;
9898;SDS011;4988;49.238;6.698;2022-12-26T12:36:17;5.90;;;3.17;;
9898;SDS011;4988;49.238;6.698;2022-12-26T12:38:59;4.53;;;2.57;;
9898;SDS011;4988;49.238;6.698;2022-12-26T12:52:36;6.90;;;2.77;;
9898;SDS011;4988;49.238;6.698;2022-12-26T13:00:17;7.20;;;2.73;;
9898;SDS011;4988;49.238;6.698;2022-12-26T13:05:53;5.00;;;2.90;;
9898;SDS011;4988;49.238;6.698;2022-12-26T13:08:34;5.47;;;2.27;;
9898;SDS011;4988;49.238;6.698;2022-12-26T13:16:45;6.07;;;2.77;;
9898;SDS011;4988;49.238;6.698;2022-12-26T13:21:48;6.10;;;2.90;;
9898;SDS011;4988;49.238;6.698;2022-12-26T13:34:59;6.90;;;3.00;;
9898;SDS011;4988;49.238;6.698;2022-12-26T13:39:59;7.17;;;3.57;;
9898;SDS011;4988;49.238;6.698;2022-12-26T13:42:34;7.63;;;4.40;;
9898;SDS011;4988;49.238;6.698;2022-12-26T13:48:02;3.83;;;2.57;;
9898;SDS011;4988;49.238;6.698;2022-12-26T13:50:59;4.30;;;2.90;;
9898;SDS011;4988;49.238;6.698;2022-12-26T13:53:29;5.70;;;2.70;;
9898;SDS011;4988;49.238;6.698;2022-12-26T13:55:59;4.10;;;2.20;;
9898;SDS011;4988;49.238;6.698;2022-12-26T14:01:47;2.73;;;2.30;;
9898;SDS011;4988;49.238;6.698;2022-12-26T14:04:16;3.03;;;2.50;;
9898;SDS011;4988;49.238;6.698;2022-12-26T14:07:16;4.57;;;2.47;;
9898;SDS011;4988;49.238;6.698;2022-12-26T14:20:40;4.53;;;2.30;;
9898;SDS011;4988;49.238;6.698;2022-12-26T14:25:34;3.73;;;2.20;;
9898;SDS011;4988;49.238;6.698;2022-12-26T14:28:46;7.33;;;2.83;;
9898;SDS011;4988;49.238;6.698;2022-12-26T14:37:21;6.93;;;3.00;;
9898;SDS011;4988;49.238;6.698;2022-12-26T14:48:01;4.53;;;3.27;;
9898;SDS011;4988;49.238;6.698;2022-12-26T14:58:51;7.57;;;4.30;;
9898;SDS011;4988;49.238;6.698;2022-12-26T15:06:45;6.90;;;2.77;;
9898;SDS011;4988;49.238;6.698;2022-12-26T15:18:08;5.40;;;3.07;;
9898;SDS011;4988;49.238;6.698;2022-12-26T15:31:54;2.20;;;2.00;;
9898;SDS011;4988;49.238;6.698;2022-12-26T15:40:14;7.00;;;2.77;;
9898;SDS011;4988;49.238;6.698;2022-12-26T15:47:51;2.93;;;2.53;;
9898;SDS011;4988;49.238;6.698;2022-12-26T15:50:28;5.00;;;2.67;;
9898;SDS011;4988;49.238;6.698;2022-12-26T15:56:36;4.33;;;2.00;;
9898;SDS011;4988;49.238;6.698;2022-12-26T16:01:59;3.40;;;2.27;;
9898;SDS011;4988;49.238;6.698;2022-12-26T16:04:35;7.40;;;2.70;;
9898;SDS011;4988;49.238;6.698;2022-12-26T16:09:59;3.43;;;2.37;;
9898;SDS011;4988;49.238;6.698;2022-12-26T16:12:29;5.47;;;2.27;;
9898;SDS011;4988;49.238;6.698;2022-12-26T16:15:00;5.23;;;2.30;;
9898;SDS011;4988;49.238;6.698;2022-12-26T16:17:39;3.23;;;2.20;;
9898;SDS011;4988;49.238;6.698;2022-12-26T16:20:16;2.27;;;2.00;;
9898;SDS011;4988;49.238;6.698;2022-12-26T16:23:04;3.30;;;1.93;;
9898;SDS011;4988;49.238;6.698;2022-12-26T16:25:30;1.90;;;1.80;;
9898;SDS011;4988;49.238;6.698;2022-12-26T16:27:56;2.83;;;1.97;;
9898;SDS011;4988;49.238;6.698;2022-12-26T16:30:24;3.47;;;2.80;;
9898;SDS011;4988;49.238;6.698;2022-12-26T16:32:52;2.63;;;2.40;;
9898;SDS011;4988;49.238;6.698;2022-12-26T16:35:20;3.23;;;2.93;;
9898;SDS011;4988;49.238;6.698;2022-12-26T16:37:49;6.57;;;2.70;;
9898;SDS011;4988;49.238;6.698;2022-12-26T16:40:20;1.97;;;1.60;;
9898;SDS011;4988;49.238;6.698;2022-12-26T16:42:54;2.13;;;1.93;;
9898;SDS011;4988;49.238;6.698;2022-12-26T16:45:23;3.37;;;2.33;;
9898;SDS011;4988;49.238;6.698;2022-12-26T16:47:50;2.87;;;1.80;;
9898;SDS011;4988;49.238;6.698;2022-12-26T16:50:21;1.83;;;1.73;;
9898;SDS011;4988;49.238;6.698;2022-12-26T16:52:48;1.70;;;1.60;;
9898;SDS011;4988;49.238;6.698;2022-12-26T16:55:23;2.03;;;1.90;;
9898;SDS011;4988;49.238;6.698;2022-12-26T16:57:57;2.17;;;1.97;;
9898;SDS011;4988;49.238;6.698;2022-12-26T17:00:25;3.37;;;2.83;;
9898;SDS011;4988;49.238;6.698;2022-12-26T17:02:52;1.87;;;1.73;;
9898;SDS011;4988;49.238;6.698;2022-12-26T17:05:27;3.07;;;2.80;;
9898;SDS011;4988;49.238;6.698;2022-12-26T17:07:56;2.90;;;2.27;;
9898;SDS011;4988;49.238;6.698;2022-12-26T17:10:26;1.93;;;1.83;;
9898;SDS011;4988;49.238;6.698;2022-12-26T17:12:59;2.50;;;1.50;;
9898;SDS011;4988;49.238;6.698;2022-12-26T17:15:31;2.23;;;1.80;;
9898;SDS011;4988;49.238;6.698;2022-12-26T17:17:59;2.40;;;2.20;;
9898;SDS011;4988;49.238;6.698;2022-12-26T17:23:41;3.53;;;2.20;;
9898;SDS011;4988;49.238;6.698;2022-12-26T17:26:15;3.97;;;2.60;;
9898;SDS011;4988;49.238;6.698;2022-12-26T17:28:43;3.50;;;2.83;;
9898;SDS011;4988;49.238;6.698;2022-12-26T17:31:14;3.30;;;2.50;;
9898;SDS011;4988;49.238;6.698;2022-12-26T17:33:42;3.47;;;2.50;;
9898;SDS011;4988;49.238;6.698;2022-12-26T17:36:11;2.97;;;2.50;;
9898;SDS011;4988;49.238;6.698;2022-12-26T17:38:40;2.60;;;2.30;;
9898;SDS011;4988;49.238;6.698;2022-12-26T17:41:08;6.53;;;2.70;;
9898;SDS011;4988;49.238;6.698;2022-12-26T17:43:37;3.47;;;2.53;;
9898;SDS011;4988;49.238;6.698;2022-12-26T17:46:04;4.47;;;3.00;;
9898;SDS011;4988;49.238;6.698;2022-12-26T17:48:32;3.10;;;2.47;;
9898;SDS011;4988;49.238;6.698;2022-12-26T17:50:59;3.27;;;2.20;;
9898;SDS011;4988;49.238;6.698;2022-12-26T17:53:30;4.93;;;3.20;;
9898;SDS011;4988;49.238;6.698;2022-12-26T17:56:02;4.93;;;3.00;;
9898;SDS011;4988;49.238;6.698;2022-12-26T17:58:30;3.93;;;2.77;;
9898;SDS011;4988;49.238;6.698;2022-12-26T18:00:55;6.33;;;3.87;;
9898;SDS011;4988;49.238;6.698;2022-12-26T18:03:21;6.47;;;4.20;;
9898;SDS011;4988;49.238;6.698;2022-12-26T18:05:47;6.07;;;2.80;;
9898;SDS011;4988;49.238;6.698;2022-12-26T18:08:20;3.83;;;3.00;;
9898;SDS011;4988;49.238;6.698;2022-12-26T18:10:50;5.07;;;2.73;;
9898;SDS011;4988;49.238;6.698;2022-12-26T18:13:15;5.30;;;3.00;;
9898;SDS011;4988;49.238;6.698;2022-12-26T18:15:41;4.43;;;2.93;;
9898;SDS011;4988;49.238;6.698;2022-12-26T18:18:10;4.03;;;2.70;;
9898;SDS011;4988;49.238;6.698;2022-12-26T18:20:46;5.63;;;3.30;;
9898;SDS011;4988;49.238;6.698;2022-12-26T18:23:12;7.23;;;3.20;;
9898;SDS011;4988;49.238;6.698;2022-12-26T18:25:37;8.23;;;3.60;;
9898;SDS011;4988;49.238;6.698;2022-12-26T18:28:02;7.93;;;3.40;;
9898;SDS011;4988;49.238;6.698;2022-12-26T18:30:28;4.97;;;3.10;;
9898;SDS011;4988;49.238;6.698;2022-12-26T18:32:53;6.77;;;3.20;;
9898;SDS011;4988;49.238;6.698;2022-12-26T18:35:19;4.67;;;3.00;;
9898;SDS011;4988;49.238;6.698;2022-12-26T18:37:45;4.13;;;2.90;;
9898;SDS011;4988;49.238;6.698;2022-12-26T18:43:03;8.00;;;2.73;;
9898;SDS011;4988;49.238;6.698;2022-12-26T18:45:29;4.13;;;2.47;;
9898;SDS011;4988;49.238;6.698;2022-12-26T18:47:55;9.10;;;2.93;;
9898;SDS011;4988;49.238;6.698;2022-12-26T18:50:22;6.57;;;2.80;;
9898;SDS011;4988;49.238;6.698;2022-12-26T18:52:48;5.20;;;2.80;;
9898;SDS011;4988;49.238;6.698;2022-12-26T18:55:13;7.40;;;2.93;;
9898;SDS011;4988;49.238;6.698;2022-12-26T18:57:38;8.17;;;2.80;;
9898;SDS011;4988;49.238;6.698;2022-12-26T19:00:04;5.07;;;3.40;;
9898;SDS011;4988;49.238;6.698;2022-12-26T19:02:31;8.07;;;2.93;;
9898;SDS011;4988;49.238;6.698;2022-12-26T19:04:56;5.23;;;2.80;;
9898;SDS011;4988;49.238;6.698;2022-12-26T19:07:22;5.57;;;2.60;;
9898;SDS011;4988;49.238;6.698;2022-12-26T19:09:49;5.87;;;2.37;;
9898;SDS011;4988;49.238;6.698;2022-12-26T19:12:20;5.97;;;2.60;;
9898;SDS011;4988;49.238;6.698;2022-12-26T19:14:47;6.97;;;2.50;;
9898;SDS011;4988;49.238;6.698;2022-12-26T19:17:13;5.73;;;2.33;;
9898;SDS011;4988;49.238;6.698;2022-12-26T19:19:39;8.47;;;2.40;;
9898;SDS011;4988;49.238;6.698;2022-12-26T19:22:04;4.63;;;2.60;;
9898;SDS011;4988;49.238;6.698;2022-12-26T19:24:29;4.67;;;2.30;;
9898;SDS011;4988;49.238;6.698;2022-12-26T19:26:55;4.23;;;2.10;;
9898;SDS011;4988;49.238;6.698;2022-12-26T19:29:20;5.83;;;2.20;;
9898;SDS011;4988;49.238;6.698;2022-12-26T19:31:46;4.70;;;2.40;;
9898;SDS011;4988;49.238;6.698;2022-12-26T19:34:11;4.07;;;2.40;;
9898;SDS011;4988;49.238;6.698;2022-12-26T19:36:36;3.13;;;2.20;;
9898;SDS011;4988;49.238;6.698;2022-12-26T19:39:02;3.50;;;2.20;;
9898;SDS011;4988;49.238;6.698;2022-12-26T19:41:28;4.73;;;2.23;;